27°F Temp
10°F Dewpoint
% Humidity
Temperature
9 MPH
14 KM/H
8 KTS
30°
North North
East

Wind Speed
Clear
Conditions
Pressure 1025.42 (hPa) - 30.28 (in)
Visibility 10.0 (mi) - 16.1 (km)

Current Conditions
KTZR
Location 6km (3.2mi)
Metar :KTZR 260835Z AUTO 03008KT 10SM CLR M03/M12 A3028 RMK AO2 T10261116
Tue 26th March 03:35 am

Airport
  Metar Aviation API Data Provided by https://www.checkwx.com/ CSS/SVG/PHP scripts by weather34.com © 2015-2019